• Join FlightAware (Why Join?)
  • Login
  • US Flag 
06:42AM EDT


 

Airport Tracker/Info


-or-


 

Live Flight TrackerFlight Track Log ✈ UAL4086 ✈ 2013年04月24日 ✈ KIAH - KSAT

Flight Track Log - Related Links

Times and Time Zones

All times are in EDT time to prevent confusion due to time zone crossing. See the UAL4086 flight status page for this flight to view local times or setup timezone preferences in your user account.

Time Position Orientation Groundspeed Altitude Reporting Facility
EDT Latitude Longitude Course Direction KTS MPH feet Rate Location/Type
10:47AM 29.9764 -95.3417 275° West 165 190 800  Level Houston Center
10:47AM 29.9661 -95.3914 257° West 217 250 2,600 1,920 Climbing Houston Center
10:48AM 29.9656 -95.4014 266° West 197 227 3,000 2,700 Climbing Houston Center
10:48AM 29.9556 -95.4600 259° West 235 270 5,400 2,700 Climbing Houston Center
10:49AM 29.8182 -95.8250 247° West  Level FlightAware Approximate
10:49AM 29.9544 -95.4711 263° West 214 246 5,800  Level Houston Center
10:49AM 29.9436 -95.5386 260° West 260 299 8,200 3,060 Climbing Houston Center
10:50AM 29.7667 -95.9887 270° West  Level FlightAware Approximate
10:50AM 29.9367 -95.5656 253° West 253 291 9,000  Level Houston Center
10:51AM 29.7667 -96.1644 270° West  Level FlightAware Approximate
10:51AM 29.9167 -95.6483 254° West 266 306 11,100  Level Houston Center
10:52AM 29.7883 -96.3362 275° West  Level FlightAware Approximate
10:52AM 29.8919 -95.7453 254° West 313 360 12,300  Level Houston Center
10:53AM 29.8642 -95.8508 253° West 343 395 13,700 1,320 Climbing Houston Center
10:54AM 29.8361 -95.9617 254° West 359 413 15,100 1,440 Climbing Houston Center
10:55AM 29.8050 -96.0808 253° West 365 420 16,700 1,500 Climbing Houston Center
10:56AM 29.7781 -96.1917 254° West 363 418 18,200 1,740 Climbing Houston Center
10:57AM 29.7894 -96.3303 275° West 363 418 20,300 1,800 Climbing Houston Center
10:58AM 29.7983 -96.4419 275° West 355 409 22,000 1,680 Climbing Houston Center
10:59AM 29.8064 -96.5522 275° West 351 404 23,800 1,800 Climbing Houston Center
11:00AM 29.8144 -96.6603 275° West 343 395 25,700 1,800 Climbing Houston Center
11:01AM 29.8225 -96.7639 275° West 330 380 27,500 1,080 Climbing Houston Center
11:02AM 29.8322 -96.8931 275° West 341 392 28,000 240 Climbing Houston Center
11:03AM 29.8406 -97.0106 275° West 367 422 28,000  Level Houston Center
11:04AM 29.8492 -97.1336 275° West 384 442 28,000  Level Houston Center
11:05AM 29.8589 -97.2625 275° West 402 463 28,000 -780 Level Houston Center
11:06AM 29.8669 -97.3914 274° West 405 466 26,500 -2,160 Descending Houston Center
11:07AM 29.8744 -97.5167 274° West 397 457 23,600 -3,240 Descending Houston Center
11:08AM 29.8800 -97.6036 274° West 375 432 21,400 -3,720 Descending Houston Center
11:08AM 29.8842 -97.6578 275° West 371 427 19,800 -3,660 Descending Houston Center
11:09AM 29.8925 -97.7806 275° West 359 413 15,900 -3,120 Descending Houston Center
11:10AM 29.8861 -97.8886 266° West 341 392 13,400 -2,160 Descending Houston Center
11:12AM 29.8386 -98.0017 244° Southwest 319 367 11,100 -1,620 Descending Houston Center
11:13AM 29.8064 -98.0686 241° Southwest 281 323 10,100 -1,380 Descending Houston Center
11:14AM 29.7497 -98.1222 219° Southwest 263 303 8,500 -1,680 Descending Houston Center
11:15AM 29.6917 -98.1789 220° Southwest 255 293 6,700 -1,260 Descending Houston Center
11:16AM 29.6356 -98.2317 219° Southwest 256 295 6,000 -360 Descending Houston Center
11:17AM 29.5811 -98.2800 218° Southwest 247 284 6,000  Level Houston Center
11:18AM 29.5211 -98.3383 220° Southwest 258 297 6,000 -360 Level Houston Center
11:19AM 29.4664 -98.3889 219° Southwest 252 290 5,300 -1,140 Descending Houston Center
11:20AM 29.4222 -98.4447 228° Southwest 257 296 3,800 -1,620 Descending Houston Center